createdAt,value
2023-10-29T00:00:45.461Z,977.27
2023-10-29T00:01:45.528Z,977.29
2023-10-29T00:02:45.547Z,977.26
2023-10-29T00:03:45.573Z,977.42
2023-10-29T00:04:45.607Z,977.28
2023-10-29T00:05:45.425Z,977.32
2023-10-29T00:06:45.390Z,977.33
2023-10-29T00:07:45.938Z,977.30
2023-10-29T00:08:45.398Z,977.28
2023-10-29T00:09:45.371Z,977.27
2023-10-29T00:10:45.376Z,977.31
2023-10-29T00:11:45.432Z,977.32
2023-10-29T00:12:45.372Z,977.27
2023-10-29T00:13:45.344Z,977.19
2023-10-29T00:14:45.502Z,977.25
2023-10-29T00:15:45.403Z,977.18
2023-10-29T00:16:45.324Z,977.18
2023-10-29T00:17:45.433Z,977.15
2023-10-29T00:18:45.314Z,977.20
2023-10-29T00:19:45.313Z,977.12
2023-10-29T00:20:45.683Z,977.12
2023-10-29T00:21:45.282Z,977.14
2023-10-29T00:22:45.288Z,977.04
2023-10-29T00:23:45.342Z,977.00
2023-10-29T00:24:45.497Z,977.04
2023-10-29T00:25:45.285Z,977.01
2023-10-29T00:26:45.386Z,977.01
2023-10-29T00:27:45.259Z,976.98
2023-10-29T00:28:45.248Z,977.01
2023-10-29T00:29:45.269Z,977.02
2023-10-29T00:30:45.248Z,977.05
2023-10-29T00:31:45.216Z,976.99
2023-10-29T00:32:45.296Z,977.00
2023-10-29T00:33:45.209Z,976.91
2023-10-29T00:34:45.303Z,976.97
2023-10-29T00:35:45.247Z,976.96
2023-10-29T00:36:45.210Z,976.89
2023-10-29T00:37:45.183Z,976.93
2023-10-29T00:38:45.244Z,976.90
2023-10-29T00:39:45.165Z,976.94
2023-10-29T00:40:45.183Z,976.83
2023-10-29T00:41:45.168Z,976.95
2023-10-29T00:42:45.130Z,976.91
2023-10-29T00:43:45.136Z,976.92
2023-10-29T00:44:45.223Z,976.95
2023-10-29T00:45:45.148Z,976.95
2023-10-29T00:46:45.107Z,977.03
2023-10-29T00:47:45.273Z,976.97
2023-10-29T00:48:45.096Z,976.95
2023-10-29T00:49:45.086Z,977.00
2023-10-29T00:50:45.136Z,977.04
2023-10-29T00:51:45.071Z,977.05
2023-10-29T00:52:45.087Z,977.03
2023-10-29T00:53:45.094Z,977.01
2023-10-29T00:54:45.057Z,977.08
2023-10-29T00:55:45.078Z,977.04
2023-10-29T00:56:45.081Z,977.08
2023-10-29T00:57:45.037Z,977.07
2023-10-29T00:58:45.022Z,977.07
2023-10-29T00:59:45.057Z,977.11
2023-10-29T01:00:45.038Z,977.11
2023-10-29T01:01:44.997Z,977.01
2023-10-29T01:02:45.088Z,977.02
2023-10-29T01:03:45.198Z,977.05
2023-10-29T01:04:45.001Z,977.07
2023-10-29T01:05:45.070Z,977.14
2023-10-29T01:06:44.977Z,977.07
2023-10-29T01:07:44.968Z,977.01
2023-10-29T01:08:45.073Z,977.05
2023-10-29T01:09:44.955Z,977.00
2023-10-29T01:10:44.988Z,976.97
2023-10-29T01:11:44.959Z,976.99
2023-10-29T01:12:44.954Z,976.93
2023-10-29T01:13:44.957Z,976.97
2023-10-29T01:14:44.966Z,976.91
2023-10-29T01:15:44.955Z,976.88
2023-10-29T01:16:44.909Z,976.90
2023-10-29T01:17:44.931Z,976.85
2023-10-29T01:18:44.905Z,976.84
2023-10-29T01:19:44.881Z,976.81
2023-10-29T01:20:44.928Z,976.79
2023-10-29T01:21:44.866Z,976.71
2023-10-29T01:22:44.879Z,976.71
2023-10-29T01:23:44.894Z,976.83
2023-10-29T01:24:44.889Z,976.75
2023-10-29T01:25:44.870Z,976.74
2023-10-29T01:26:44.901Z,976.77
2023-10-29T01:27:44.828Z,976.69
2023-10-29T01:28:44.818Z,976.65
2023-10-29T01:29:44.844Z,976.62
2023-10-29T01:30:44.824Z,976.58
2023-10-29T01:31:44.789Z,976.53
2023-10-29T01:32:44.827Z,976.59
2023-10-29T01:33:44.785Z,976.63
2023-10-29T01:34:44.842Z,976.72
2023-10-29T01:35:44.856Z,976.66
2023-10-29T01:36:44.758Z,976.59
2023-10-29T01:37:44.756Z,976.61
2023-10-29T01:38:44.808Z,976.57
2023-10-29T01:39:44.735Z,976.63
2023-10-29T01:40:44.781Z,976.66
2023-10-29T01:41:44.748Z,976.59
2023-10-29T01:42:44.712Z,976.59
2023-10-29T01:43:44.707Z,976.58
2023-10-29T01:44:44.709Z,976.53
2023-10-29T01:45:44.729Z,976.58
2023-10-29T01:46:44.686Z,976.59
2023-10-29T01:47:44.761Z,976.55
2023-10-29T01:48:44.673Z,976.54
2023-10-29T01:49:44.687Z,976.55
2023-10-29T01:50:44.746Z,976.53
2023-10-29T01:51:44.686Z,976.53
2023-10-29T01:52:44.689Z,976.53
2023-10-29T01:53:44.829Z,976.46
2023-10-29T01:54:44.742Z,976.43
2023-10-29T01:55:44.659Z,976.39
2023-10-29T01:56:44.638Z,976.39
2023-10-29T01:57:44.608Z,976.45
2023-10-29T01:58:44.601Z,976.43
2023-10-29T01:59:44.617Z,976.41
2023-10-29T02:00:44.606Z,976.41
2023-10-29T02:01:44.617Z,976.46
2023-10-29T02:02:44.658Z,976.44
2023-10-29T02:03:44.753Z,976.39
2023-10-29T02:05:44.634Z,976.38
2023-10-29T02:06:44.592Z,976.34
2023-10-29T02:07:44.569Z,976.28
2023-10-29T02:08:44.574Z,976.34
2023-10-29T02:09:44.525Z,976.32
2023-10-29T02:10:44.542Z,976.38
2023-10-29T02:11:44.536Z,976.36
2023-10-29T02:12:44.525Z,976.22
2023-10-29T02:13:44.493Z,976.26
2023-10-29T02:14:44.556Z,976.13
2023-10-29T02:15:44.624Z,976.21
2023-10-29T02:16:44.472Z,976.22
2023-10-29T02:17:44.542Z,976.21
2023-10-29T02:18:44.459Z,976.23
2023-10-29T02:19:44.490Z,976.21
2023-10-29T02:20:44.475Z,976.28
2023-10-29T02:21:44.445Z,976.31
2023-10-29T02:22:44.436Z,976.25
2023-10-29T02:23:44.453Z,976.12
2023-10-29T02:24:44.459Z,976.13
2023-10-29T02:25:44.423Z,976.08
2023-10-29T02:26:44.415Z,976.07
2023-10-29T02:27:45.079Z,976.06
2023-10-29T02:28:44.411Z,975.92
2023-10-29T02:29:44.488Z,975.77
2023-10-29T02:30:44.387Z,975.82
2023-10-29T02:31:44.398Z,975.86
2023-10-29T02:32:44.444Z,975.79
2023-10-29T02:33:44.358Z,975.84
2023-10-29T02:34:44.366Z,975.83
2023-10-29T02:35:44.360Z,975.85
2023-10-29T02:36:44.333Z,975.84
2023-10-29T02:37:44.331Z,975.84
2023-10-29T02:38:44.454Z,975.82
2023-10-29T02:39:44.346Z,975.76
2023-10-29T02:40:44.316Z,975.87
2023-10-29T02:41:44.344Z,975.75
2023-10-29T02:42:44.380Z,975.67
2023-10-29T02:43:44.309Z,975.75
2023-10-29T02:44:44.461Z,975.76
2023-10-29T02:45:44.314Z,975.79
2023-10-29T02:46:44.281Z,975.76
2023-10-29T02:47:44.348Z,975.77
2023-10-29T02:48:44.253Z,975.71
2023-10-29T02:49:44.285Z,975.70
2023-10-29T02:50:44.310Z,975.72
2023-10-29T02:51:44.241Z,975.74
2023-10-29T02:52:44.236Z,975.71
2023-10-29T02:53:44.235Z,975.77
2023-10-29T02:54:44.715Z,975.71
2023-10-29T02:55:44.219Z,975.74
2023-10-29T02:56:44.244Z,975.71
2023-10-29T02:57:44.194Z,975.65
2023-10-29T02:58:44.209Z,975.68
2023-10-29T02:59:44.257Z,975.61
2023-10-29T03:00:44.214Z,975.64
2023-10-29T03:01:44.164Z,975.62
2023-10-29T03:02:44.270Z,975.55
2023-10-29T03:03:44.212Z,975.56
2023-10-29T03:04:44.169Z,975.38
2023-10-29T03:05:54.199Z,975.42
2023-10-29T03:06:45.198Z,975.45
2023-10-29T03:07:44.120Z,975.42
2023-10-29T03:08:44.135Z,975.37
2023-10-29T03:09:44.156Z,975.40
2023-10-29T03:10:44.102Z,975.44
2023-10-29T03:11:44.156Z,975.42
2023-10-29T03:12:44.093Z,975.43
2023-10-29T03:13:44.083Z,975.61
2023-10-29T03:14:44.131Z,975.75
2023-10-29T03:15:44.266Z,975.78
2023-10-29T03:16:44.101Z,975.65
2023-10-29T03:17:44.093Z,975.78
2023-10-29T03:18:44.062Z,975.77
2023-10-29T03:19:44.380Z,975.81
2023-10-29T03:20:44.113Z,975.76
2023-10-29T03:21:44.026Z,975.82
2023-10-29T03:22:44.024Z,975.82
2023-10-29T03:23:44.058Z,975.88
2023-10-29T03:24:44.002Z,975.89
2023-10-29T03:25:44.011Z,975.90
2023-10-29T03:26:44.651Z,975.91
2023-10-29T03:27:43.987Z,976.01
2023-10-29T03:28:43.975Z,975.90
2023-10-29T03:29:44.003Z,975.82
2023-10-29T03:30:43.979Z,975.91
2023-10-29T03:31:44.021Z,975.95
2023-10-29T03:32:44.049Z,975.93
2023-10-29T03:33:43.934Z,975.93
2023-10-29T03:34:43.934Z,975.87
2023-10-29T03:35:43.990Z,975.94
2023-10-29T03:36:43.919Z,975.82
2023-10-29T03:37:43.910Z,975.85
2023-10-29T03:38:43.928Z,975.85
2023-10-29T03:39:43.893Z,975.83
2023-10-29T03:40:43.888Z,975.83
2023-10-29T03:41:43.937Z,975.76
2023-10-29T03:42:44.038Z,975.87
2023-10-29T03:43:43.867Z,975.86
2023-10-29T03:44:43.942Z,975.88
2023-10-29T03:45:43.922Z,975.84
2023-10-29T03:46:43.867Z,975.90
2023-10-29T03:47:44.086Z,975.89
2023-10-29T03:48:43.854Z,975.92
2023-10-29T03:49:43.829Z,975.92
2023-10-29T03:50:43.852Z,975.91
2023-10-29T03:51:43.837Z,975.89
2023-10-29T03:52:43.811Z,975.93
2023-10-29T03:53:43.874Z,975.89
2023-10-29T03:54:43.791Z,975.92
2023-10-29T03:55:43.776Z,975.92
2023-10-29T03:56:44.330Z,975.89
2023-10-29T03:57:43.773Z,975.92
2023-10-29T03:58:43.758Z,975.82
2023-10-29T03:59:43.788Z,975.87
2023-10-29T04:00:43.756Z,975.81
2023-10-29T04:01:43.839Z,975.90
2023-10-29T04:02:43.847Z,975.87
2023-10-29T04:03:43.810Z,975.87
2023-10-29T04:04:45.809Z,975.88
2023-10-29T04:05:44.763Z,975.85
2023-10-29T04:06:43.707Z,975.77
2023-10-29T04:07:43.721Z,975.76
2023-10-29T04:08:43.712Z,975.73
2023-10-29T04:09:43.689Z,975.67
2023-10-29T04:10:43.680Z,975.66
2023-10-29T04:11:43.686Z,975.53
2023-10-29T04:12:43.688Z,975.55
2023-10-29T04:13:43.660Z,975.45
2023-10-29T04:14:43.751Z,975.48
2023-10-29T04:15:43.646Z,975.44
2023-10-29T04:16:43.669Z,975.48
2023-10-29T04:17:43.768Z,975.43
2023-10-29T04:18:43.627Z,975.25
2023-10-29T04:19:43.624Z,975.22
2023-10-29T04:20:43.647Z,975.21
2023-10-29T04:21:43.611Z,975.26
2023-10-29T04:22:43.647Z,975.28
2023-10-29T04:23:44.121Z,975.32
2023-10-29T04:24:43.581Z,975.19
2023-10-29T04:25:43.567Z,975.24
2023-10-29T04:26:43.609Z,975.19
2023-10-29T04:27:43.568Z,975.28
2023-10-29T04:28:43.782Z,975.38
2023-10-29T04:29:43.585Z,975.27
2023-10-29T04:30:43.593Z,975.31
2023-10-29T04:31:43.536Z,975.25
2023-10-29T04:32:43.627Z,975.27
2023-10-29T04:33:43.517Z,975.18
2023-10-29T04:34:43.545Z,975.17
2023-10-29T04:35:43.532Z,975.13
2023-10-29T04:36:43.547Z,975.12
2023-10-29T04:37:43.487Z,975.00
2023-10-29T04:38:43.536Z,974.84
2023-10-29T04:39:43.495Z,974.90
2023-10-29T04:40:43.525Z,974.83
2023-10-29T04:41:43.472Z,974.83
2023-10-29T04:42:43.453Z,974.87
2023-10-29T04:43:43.459Z,974.85
2023-10-29T04:44:43.478Z,974.88
2023-10-29T04:45:43.450Z,974.85
2023-10-29T04:46:43.453Z,974.84
2023-10-29T04:47:43.479Z,974.78
2023-10-29T04:48:43.502Z,974.91
2023-10-29T04:49:43.441Z,974.75
2023-10-29T04:50:43.428Z,974.77
2023-10-29T04:51:43.400Z,974.78
2023-10-29T04:52:43.518Z,974.88
2023-10-29T04:53:43.419Z,974.77
2023-10-29T04:54:43.388Z,974.82
2023-10-29T04:55:43.398Z,974.85
2023-10-29T04:56:43.388Z,974.84
2023-10-29T04:57:43.361Z,974.70
2023-10-29T04:58:43.351Z,974.76
2023-10-29T04:59:43.360Z,974.78
2023-10-29T05:00:43.341Z,974.85
2023-10-29T05:01:43.393Z,974.89
2023-10-29T05:02:43.395Z,974.85
2023-10-29T05:03:43.437Z,974.88
2023-10-29T05:04:43.329Z,974.81
2023-10-29T05:05:43.335Z,974.70
2023-10-29T05:06:43.745Z,974.73
2023-10-29T05:07:43.299Z,974.69
2023-10-29T05:08:43.324Z,974.76
2023-10-29T05:09:43.272Z,974.75
2023-10-29T05:10:43.281Z,974.59
2023-10-29T05:11:43.309Z,974.58
2023-10-29T05:12:43.273Z,974.50
2023-10-29T05:13:43.259Z,974.51
2023-10-29T05:14:43.263Z,974.56
2023-10-29T05:15:43.249Z,974.69
2023-10-29T05:16:43.347Z,974.67
2023-10-29T05:17:43.255Z,974.73
2023-10-29T05:18:43.235Z,974.80
2023-10-29T05:19:43.267Z,974.70
2023-10-29T05:20:43.287Z,974.71
2023-10-29T05:21:43.231Z,974.74
2023-10-29T05:22:43.265Z,974.76
2023-10-29T05:23:43.278Z,974.74
2023-10-29T05:24:43.211Z,974.62
2023-10-29T05:25:43.187Z,974.65
2023-10-29T05:26:43.169Z,974.78
2023-10-29T05:27:43.179Z,974.69
2023-10-29T05:28:43.154Z,974.64
2023-10-29T05:29:43.151Z,974.60
2023-10-29T05:30:43.177Z,974.57
2023-10-29T05:31:43.140Z,974.57
2023-10-29T05:32:43.288Z,974.42
2023-10-29T05:33:43.126Z,974.44
2023-10-29T05:34:43.114Z,974.43
2023-10-29T05:35:43.182Z,974.33
2023-10-29T05:36:43.098Z,974.31
2023-10-29T05:37:43.220Z,974.33
2023-10-29T05:38:43.110Z,974.32
2023-10-29T05:39:43.375Z,974.57
2023-10-29T05:40:43.092Z,974.57
2023-10-29T05:41:43.234Z,974.50
2023-10-29T05:42:43.097Z,974.58
2023-10-29T05:43:43.050Z,974.58
2023-10-29T05:44:43.084Z,974.70
2023-10-29T05:45:43.058Z,974.58
2023-10-29T05:46:43.097Z,974.60
2023-10-29T05:47:43.099Z,974.53
2023-10-29T05:48:43.095Z,974.63
2023-10-29T05:49:43.021Z,974.72
2023-10-29T05:50:43.017Z,974.77
2023-10-29T05:51:43.044Z,974.75
2023-10-29T05:52:42.989Z,974.79
2023-10-29T05:53:43.030Z,974.82
2023-10-29T05:54:43.041Z,974.91
2023-10-29T05:55:43.123Z,974.79
2023-10-29T05:56:43.032Z,974.83
2023-10-29T05:57:42.992Z,974.81
2023-10-29T05:58:42.952Z,974.86
2023-10-29T05:59:50.054Z,974.84
2023-10-29T06:00:42.998Z,974.87
2023-10-29T06:01:43.059Z,974.90
2023-10-29T06:02:43.020Z,974.99
2023-10-29T06:03:43.213Z,974.99
2023-10-29T06:04:43.075Z,975.12
2023-10-29T06:05:42.952Z,975.01
2023-10-29T06:06:42.902Z,975.01
2023-10-29T06:07:43.007Z,975.07
2023-10-29T06:08:42.917Z,975.11
2023-10-29T06:09:42.897Z,975.17
2023-10-29T06:10:42.883Z,975.18
2023-10-29T06:11:42.894Z,975.33
2023-10-29T06:12:42.921Z,975.30
2023-10-29T06:13:42.861Z,975.33
2023-10-29T06:14:42.870Z,975.25
2023-10-29T06:15:42.850Z,975.33
2023-10-29T06:16:42.884Z,975.36
2023-10-29T06:17:43.098Z,975.44
2023-10-29T06:18:42.894Z,975.45
2023-10-29T06:19:42.811Z,975.42
2023-10-29T06:20:42.854Z,975.57
2023-10-29T06:21:42.818Z,975.55
2023-10-29T06:22:42.962Z,975.42
2023-10-29T06:23:42.826Z,975.42
2023-10-29T06:24:42.797Z,975.39
2023-10-29T06:25:42.804Z,975.35
2023-10-29T06:26:42.807Z,975.26
2023-10-29T06:27:42.813Z,975.22
2023-10-29T06:28:42.847Z,975.24
2023-10-29T06:29:42.913Z,975.06
2023-10-29T06:30:42.760Z,975.00
2023-10-29T06:31:42.741Z,974.91
2023-10-29T06:32:42.843Z,974.81
2023-10-29T06:33:42.885Z,974.62
2023-10-29T06:34:42.723Z,974.54
2023-10-29T06:35:42.766Z,974.21
2023-10-29T06:36:42.709Z,974.00
2023-10-29T06:37:42.713Z,973.91
2023-10-29T06:38:42.713Z,974.58
2023-10-29T06:39:42.721Z,974.76
2023-10-29T06:40:42.683Z,974.88
2023-10-29T06:41:42.685Z,974.85
2023-10-29T06:42:42.671Z,975.26
2023-10-29T06:43:42.658Z,974.96
2023-10-29T06:44:42.752Z,975.02
2023-10-29T06:45:42.642Z,974.99
2023-10-29T06:46:42.672Z,975.02
2023-10-29T06:47:42.703Z,975.23
2023-10-29T06:48:42.625Z,975.31
2023-10-29T06:49:42.615Z,975.30
2023-10-29T06:50:42.670Z,975.40
2023-10-29T06:51:42.594Z,975.54
2023-10-29T06:52:42.596Z,975.69
2023-10-29T06:53:42.585Z,975.66
2023-10-29T06:54:42.600Z,975.66
2023-10-29T06:55:42.585Z,975.63
2023-10-29T06:56:42.615Z,975.75
2023-10-29T06:57:42.571Z,975.71
2023-10-29T06:58:42.551Z,975.75
2023-10-29T06:59:42.630Z,975.80
2023-10-29T07:00:42.565Z,975.73
2023-10-29T07:01:42.577Z,975.66
2023-10-29T07:02:42.608Z,975.67
2023-10-29T07:03:42.664Z,975.59
2023-10-29T07:04:42.528Z,975.65
2023-10-29T07:05:42.523Z,975.68
2023-10-29T07:06:44.158Z,975.74
2023-10-29T07:07:42.518Z,975.65
2023-10-29T07:08:42.512Z,975.63
2023-10-29T07:09:42.466Z,975.70
2023-10-29T07:10:42.474Z,975.73
2023-10-29T07:11:42.462Z,975.54
2023-10-29T07:12:42.498Z,975.49
2023-10-29T07:13:42.505Z,975.48
2023-10-29T07:14:42.488Z,975.55
2023-10-29T07:15:42.460Z,975.62
2023-10-29T07:16:42.478Z,975.49
2023-10-29T07:17:42.553Z,975.64
2023-10-29T07:18:42.506Z,975.68
2023-10-29T07:19:42.407Z,975.74
2023-10-29T07:20:42.449Z,975.68
2023-10-29T07:21:42.397Z,975.67
2023-10-29T07:22:42.497Z,975.60
2023-10-29T07:23:42.416Z,975.66
2023-10-29T07:24:42.406Z,975.71
2023-10-29T07:25:42.362Z,975.53
2023-10-29T07:26:42.423Z,975.56
2023-10-29T07:27:42.346Z,975.60
2023-10-29T07:28:42.348Z,975.72
2023-10-29T07:29:42.393Z,975.65
2023-10-29T07:30:42.327Z,975.71
2023-10-29T07:31:42.361Z,975.57
2023-10-29T07:32:42.406Z,975.62
2023-10-29T07:33:42.301Z,975.64
2023-10-29T07:34:42.334Z,975.64
2023-10-29T07:35:42.303Z,975.57
2023-10-29T07:36:42.333Z,975.49
2023-10-29T07:37:42.274Z,975.31
2023-10-29T07:38:42.329Z,975.26
2023-10-29T07:39:42.301Z,975.43
2023-10-29T07:40:42.258Z,975.62
2023-10-29T07:41:42.289Z,975.59
2023-10-29T07:42:42.248Z,975.51
2023-10-29T07:43:42.327Z,975.71
2023-10-29T07:44:42.287Z,975.55
2023-10-29T07:45:42.238Z,975.61
2023-10-29T07:46:42.437Z,975.44
2023-10-29T07:47:42.263Z,975.59
2023-10-29T07:48:42.268Z,975.53
2023-10-29T07:49:42.188Z,975.45
2023-10-29T07:50:42.204Z,975.40
2023-10-29T07:51:42.190Z,975.45
2023-10-29T07:52:42.223Z,975.61
2023-10-29T07:53:42.200Z,975.74
2023-10-29T07:54:42.176Z,975.68
2023-10-29T07:55:42.157Z,975.74
2023-10-29T07:56:42.192Z,975.89
2023-10-29T07:57:42.135Z,975.89
2023-10-29T07:58:42.176Z,976.01
2023-10-29T07:59:42.181Z,975.89
2023-10-29T08:00:42.116Z,975.83
2023-10-29T08:01:42.109Z,975.76
2023-10-29T08:02:42.191Z,975.51
2023-10-29T08:03:42.243Z,975.55
2023-10-29T08:04:42.291Z,975.49
2023-10-29T08:05:42.096Z,975.68
2023-10-29T08:06:42.074Z,975.63
2023-10-29T08:07:42.085Z,975.83
2023-10-29T08:08:42.185Z,975.88
2023-10-29T08:09:42.089Z,975.69
2023-10-29T08:10:42.060Z,975.77
2023-10-29T08:11:42.065Z,975.66
2023-10-29T08:12:42.037Z,975.57
2023-10-29T08:13:42.025Z,975.49
2023-10-29T08:14:42.146Z,975.53
2023-10-29T08:15:43.729Z,975.39
2023-10-29T08:16:42.000Z,975.45
2023-10-29T08:17:42.105Z,975.35
2023-10-29T08:18:42.039Z,975.50
2023-10-29T08:19:42.191Z,975.55
2023-10-29T08:20:42.083Z,975.60
2023-10-29T08:21:41.969Z,975.53
2023-10-29T08:22:44.567Z,975.49
2023-10-29T08:23:42.136Z,975.43
2023-10-29T08:24:41.953Z,975.29
2023-10-29T08:25:41.941Z,975.38
2023-10-29T08:26:41.952Z,975.29
2023-10-29T08:27:41.941Z,975.36
2023-10-29T08:28:41.916Z,975.14
2023-10-29T08:29:41.952Z,975.20
2023-10-29T08:30:41.910Z,975.20
2023-10-29T08:31:41.909Z,975.26
2023-10-29T08:32:42.001Z,975.39
2023-10-29T08:33:41.913Z,975.23
2023-10-29T08:34:41.997Z,975.27
2023-10-29T08:35:41.896Z,975.37
2023-10-29T08:36:41.958Z,975.45
2023-10-29T08:37:42.891Z,975.54
2023-10-29T08:38:41.942Z,975.46
2023-10-29T08:39:41.862Z,975.34
2023-10-29T08:40:41.837Z,975.44
2023-10-29T08:41:41.857Z,975.34
2023-10-29T08:42:41.828Z,975.34
2023-10-29T08:43:41.815Z,975.51
2023-10-29T08:44:41.930Z,975.42
2023-10-29T08:45:42.890Z,975.57
2023-10-29T08:46:41.805Z,975.44
2023-10-29T08:47:41.905Z,975.37
2023-10-29T08:48:41.848Z,975.44
2023-10-29T08:49:41.800Z,975.53
2023-10-29T08:50:41.801Z,975.51
2023-10-29T08:51:41.757Z,975.43
2023-10-29T08:52:41.778Z,975.53
2023-10-29T08:53:41.816Z,975.44
2023-10-29T08:54:41.873Z,975.47
2023-10-29T08:55:41.733Z,975.49
2023-10-29T08:56:41.763Z,975.45
2023-10-29T08:57:41.745Z,975.49
2023-10-29T08:58:41.852Z,975.47
2023-10-29T08:59:41.823Z,975.57
2023-10-29T09:00:46.415Z,975.33
2023-10-29T09:01:42.768Z,975.48
2023-10-29T09:02:41.886Z,975.51
2023-10-29T09:03:41.929Z,975.57
2023-10-29T09:04:42.240Z,975.55
2023-10-29T09:05:41.761Z,975.59
2023-10-29T09:06:41.689Z,975.56
2023-10-29T09:07:42.649Z,975.44
2023-10-29T09:08:41.919Z,975.47
2023-10-29T09:09:41.641Z,975.48
2023-10-29T09:10:42.635Z,975.58
2023-10-29T09:11:41.633Z,975.67
2023-10-29T09:12:41.665Z,975.56
2023-10-29T09:13:42.696Z,975.55
2023-10-29T09:14:41.762Z,975.57
2023-10-29T09:15:41.715Z,975.56
2023-10-29T09:16:41.612Z,975.53
2023-10-29T09:17:41.624Z,975.61
2023-10-29T09:18:41.619Z,975.78
2023-10-29T09:19:41.589Z,975.53
2023-10-29T09:20:41.632Z,975.52
2023-10-29T09:21:41.556Z,975.48
2023-10-29T09:22:41.562Z,975.68
2023-10-29T09:23:41.596Z,975.60
2023-10-29T09:24:41.550Z,975.61
2023-10-29T09:25:41.962Z,975.64
2023-10-29T09:26:41.559Z,975.73
2023-10-29T09:27:41.523Z,975.80
2023-10-29T09:28:41.547Z,975.84
2023-10-29T09:29:41.583Z,975.71
2023-10-29T09:30:41.523Z,975.86
2023-10-29T09:31:41.558Z,975.91
2023-10-29T09:32:41.557Z,975.96
2023-10-29T09:33:41.517Z,976.04
2023-10-29T09:34:41.466Z,975.98
2023-10-29T09:35:41.468Z,975.89
2023-10-29T09:36:41.493Z,976.00
2023-10-29T09:37:41.459Z,976.00
2023-10-29T09:38:41.439Z,975.82
2023-10-29T09:39:41.469Z,976.00
2023-10-29T09:40:41.448Z,976.08
2023-10-29T09:41:41.466Z,976.16
2023-10-29T09:42:41.446Z,976.07
2023-10-29T09:43:41.408Z,976.06
2023-10-29T09:44:41.469Z,976.05
2023-10-29T09:45:41.420Z,976.08
2023-10-29T09:46:41.402Z,976.10
2023-10-29T09:47:41.485Z,975.95
2023-10-29T09:48:41.448Z,976.08
2023-10-29T09:49:41.396Z,976.06
2023-10-29T09:50:41.374Z,975.91
2023-10-29T09:51:41.344Z,975.97
2023-10-29T09:52:41.420Z,975.92
2023-10-29T09:53:41.436Z,975.98
2023-10-29T09:54:41.350Z,976.03
2023-10-29T09:55:41.325Z,975.97
2023-10-29T09:56:41.412Z,976.06
2023-10-29T09:57:41.303Z,976.08
2023-10-29T09:58:41.305Z,976.07
2023-10-29T09:59:41.398Z,976.17
2023-10-29T10:00:41.276Z,976.27
2023-10-29T10:01:55.442Z,976.39
2023-10-29T10:02:42.406Z,976.46
2023-10-29T10:03:41.414Z,976.45
2023-10-29T10:04:41.259Z,976.44
2023-10-29T10:05:41.299Z,976.38
2023-10-29T10:06:42.205Z,976.37
2023-10-29T10:07:41.224Z,976.32
2023-10-29T10:08:41.260Z,976.39
2023-10-29T10:09:41.209Z,976.37
2023-10-29T10:10:41.246Z,976.38
2023-10-29T10:11:41.298Z,976.31
2023-10-29T10:12:41.269Z,976.35
2023-10-29T10:13:41.179Z,976.46
2023-10-29T10:14:41.221Z,976.37
2023-10-29T10:15:41.278Z,976.30
2023-10-29T10:16:41.295Z,976.29
2023-10-29T10:17:41.444Z,976.21
2023-10-29T10:18:41.175Z,976.15
2023-10-29T10:19:41.330Z,976.12
2023-10-29T10:20:41.210Z,976.16
2023-10-29T10:21:41.134Z,976.17
2023-10-29T10:22:41.132Z,976.23
2023-10-29T10:23:41.164Z,976.10
2023-10-29T10:24:41.117Z,976.03
2023-10-29T10:25:41.152Z,976.09
2023-10-29T10:26:41.106Z,976.13
2023-10-29T10:27:41.084Z,976.15
2023-10-29T10:28:41.135Z,976.00
2023-10-29T10:29:41.099Z,976.25
2023-10-29T10:30:41.109Z,976.20
2023-10-29T10:31:41.064Z,976.13
2023-10-29T10:32:41.134Z,976.01
2023-10-29T10:33:41.153Z,976.10
2023-10-29T10:34:41.087Z,976.15
2023-10-29T10:35:41.064Z,976.11
2023-10-29T10:36:41.018Z,976.13
2023-10-29T10:37:41.008Z,976.09
2023-10-29T10:38:41.017Z,976.03
2023-10-29T10:39:40.991Z,976.16
2023-10-29T10:40:41.024Z,976.05
2023-10-29T10:41:40.987Z,976.07
2023-10-29T10:42:40.990Z,976.10
2023-10-29T10:43:40.977Z,976.25
2023-10-29T10:44:41.025Z,976.11
2023-10-29T10:45:40.993Z,976.10
2023-10-29T10:46:40.962Z,976.18
2023-10-29T10:47:41.001Z,975.96
2023-10-29T10:48:40.998Z,976.18
2023-10-29T10:49:40.943Z,976.17
2023-10-29T10:50:40.965Z,976.09
2023-10-29T10:51:40.904Z,976.13
2023-10-29T10:52:40.902Z,976.10
2023-10-29T10:53:42.500Z,976.18
2023-10-29T10:54:40.921Z,976.18
2023-10-29T10:55:58.977Z,976.00
2023-10-29T10:56:41.896Z,975.99
2023-10-29T10:57:41.041Z,975.99
2023-10-29T10:58:40.870Z,975.95
2023-10-29T10:59:40.897Z,976.00
2023-10-29T11:00:40.879Z,976.05
2023-10-29T11:01:40.859Z,976.04
2023-10-29T11:02:40.968Z,975.95
2023-10-29T11:03:40.997Z,976.05
2023-10-29T11:04:40.972Z,976.07
2023-10-29T11:05:40.920Z,976.17
2023-10-29T11:06:40.833Z,976.18
2023-10-29T11:07:40.788Z,976.01
2023-10-29T11:08:40.858Z,976.10
2023-10-29T11:09:40.774Z,976.18
2023-10-29T11:10:41.005Z,976.12
2023-10-29T11:11:40.790Z,976.14
2023-10-29T11:12:40.755Z,976.15
2023-10-29T11:13:40.784Z,976.11
2023-10-29T11:14:40.858Z,976.11
2023-10-29T11:15:40.736Z,976.25
2023-10-29T11:16:40.811Z,976.16
2023-10-29T11:17:40.785Z,976.06
2023-10-29T11:18:40.738Z,976.09
2023-10-29T11:19:40.700Z,976.01
2023-10-29T11:20:40.727Z,976.01
2023-10-29T11:21:40.689Z,975.98
2023-10-29T11:22:40.692Z,976.05
2023-10-29T11:23:40.773Z,976.05
2023-10-29T11:24:40.932Z,976.05
2023-10-29T11:25:40.683Z,976.04
2023-10-29T11:26:40.716Z,976.01
2023-10-29T11:27:40.662Z,975.98
2023-10-29T11:28:40.680Z,975.98
2023-10-29T11:29:40.697Z,975.88
2023-10-29T11:30:40.622Z,975.86
2023-10-29T11:31:40.736Z,975.89
2023-10-29T11:32:40.717Z,975.93
2023-10-29T11:33:40.651Z,975.92
2023-10-29T11:34:40.668Z,975.89
2023-10-29T11:35:40.604Z,975.90
2023-10-29T11:36:40.592Z,975.96
2023-10-29T11:37:40.577Z,975.86
2023-10-29T11:38:40.660Z,975.95
2023-10-29T11:39:40.808Z,975.91
2023-10-29T11:40:40.557Z,976.00
2023-10-29T11:41:41.716Z,975.98
2023-10-29T11:42:40.546Z,976.05
2023-10-29T11:43:40.569Z,976.02
2023-10-29T11:44:40.623Z,976.12
2023-10-29T11:45:40.517Z,975.99
2023-10-29T11:46:40.513Z,976.01
2023-10-29T11:47:40.625Z,976.04
2023-10-29T11:48:40.536Z,976.09
2023-10-29T11:49:40.501Z,975.98
2023-10-29T11:50:40.783Z,976.04
2023-10-29T11:51:40.473Z,976.14
2023-10-29T11:52:40.474Z,976.15
2023-10-29T11:53:40.503Z,976.12
2023-10-29T11:54:40.481Z,976.17
2023-10-29T11:55:40.482Z,976.11
2023-10-29T11:56:40.541Z,976.19
2023-10-29T11:57:40.459Z,976.23
2023-10-29T11:58:40.448Z,976.18
2023-10-29T11:59:40.543Z,976.24
2023-10-29T12:00:40.400Z,976.29
2023-10-29T12:01:41.770Z,976.28
2023-10-29T12:02:40.514Z,976.24
2023-10-29T12:03:40.582Z,976.31
2023-10-29T12:04:40.501Z,976.46
2023-10-29T12:05:40.517Z,976.41
2023-10-29T12:06:40.379Z,976.39
2023-10-29T12:07:40.372Z,976.48
2023-10-29T12:08:40.508Z,976.32
2023-10-29T12:09:40.481Z,976.51
2023-10-29T12:10:40.342Z,976.51
2023-10-29T12:11:40.530Z,976.45
2023-10-29T12:12:42.519Z,976.54
2023-10-29T12:13:40.322Z,976.55
2023-10-29T12:14:40.630Z,976.57
2023-10-29T12:15:40.296Z,976.47
2023-10-29T12:16:40.354Z,976.42
2023-10-29T12:17:40.382Z,976.42
2023-10-29T12:18:40.308Z,976.39
2023-10-29T12:19:40.301Z,976.34
2023-10-29T12:20:40.322Z,976.25
2023-10-29T12:21:40.258Z,976.21
2023-10-29T12:22:40.255Z,976.21
2023-10-29T12:23:40.254Z,975.98
2023-10-29T12:24:40.272Z,976.10
2023-10-29T12:25:40.241Z,975.87
2023-10-29T12:26:40.227Z,975.89
2023-10-29T12:27:40.217Z,975.98
2023-10-29T12:28:40.211Z,976.13
2023-10-29T12:29:40.256Z,976.08